עמוד ראשי
METAR-TAF:

METAR-TAF

שדות תעופה :

פונטה ארנס, צ'ילה

קו רוחב: 53-00S, קו אורך: 070-51W, גובה: 37מטר

תצפית מזג אוויר נוכחית

הדו"ח נערך לפני 22דקות, בשעה 08:00 UTC
רוח 14קשר מכיוון צפון-מערב
טמפרטורת 12 צלסיוס
לחות 76%
לחץ 1008 hPa
ראות 10 קילומטר או יותר
מעט עננים בגובה 3000רגל
מעונן בגובה 18000רגל

METAR: SCCI 290800Z 31014KT 9999 FEW030 OVC180 12/08 Q1008 NOSIG

זמן: 05:22 (08:22 UTC)

תחזית

הדו"ח נערך לפני 4 שעות ו 7דקות, בשעה 04:15 UTC
תחזית בתוקף מ 29 ב 06 UTC עד 01 ב 06 UTC
רוח 15קשר מכיוון מערב/צפון-מערב
ראות 10 קילומטר או יותר
מעט עננים בגובה 4000רגל
עננים בינוניים בגובה 10000רגל
יעשה מ
29 ב 10 UTC עד 29 ב 12 UTC
רוח 20קשר מכיוון צפון-מערב עם משבים עד 30קשר
זמנית מ -
29 ב 12 UTC עד 29 ב 18 UTC
רוח 28קשר מכיוון צפון-מערב עם משבים עד 38קשר
יעשה מ
01 ב 00 UTC עד 01 ב 02 UTC
רוח 15קשר מכיוון צפון/צפון-מערב

TAF: SCCI 290415Z 2906/0106 30015KT 9999 FEW040 BKN100 TN09/2908Z TX16/2918Z BECMG 2910/2912 31020G30KT TEMPO 2912/2918 31028G38KT BECMG 0100/0102 33015KT

תצפיות ותחזיות מזג אוויר לגבי יותר מ- 4,000 שדות תעופה ברחבי העולם. דוחות METAR ו- TAF.

התחנות הזמינות מסומנות בנקודות צהובות ואדומות על גבי המפה.

העבר את העכבר לנקודה הצבעונית על מנת לראות את שם התחנה.

לאחר מכן, לחץ כדי לראות את תוכן ואת תחזיות מזג האוויר.

כדי לשנות את המפה: לחץ על הכפתורים הירוקים עם הפלוס השחור כדי להתקרב; על הכפתור הירוק עם המקף כדי להתרחק; או בחיצים הירוקים למפות סמוכות.


METAR-TAF: